메인 페이지
METAR-TAF:

METAR-TAF

공항 :

리버풀 존 레논 공항

리버풀, 잉글랜드

위도: 53-20N, 경도: 002-51W, 고도: 26m

현재 날씨관측

예보는 32분 전, 20:20시(UTC)에 발표되었습니다.
서북서7kt
온도 15°C
습도 72%
기압 1023 hPa
시정 10km 이상
고도 4800ft 상공 구름 보통

METAR: EGGP 192020Z 30007KT 9999 SCT048 15/10 Q1023

시각: 21:52 (20:52 UTC)

예보

예보는 3 시간 51분 전, 17:01시(UTC)에 발표되었습니다.
예보 대상 시간: 19일 18시부터 20일 18시까지 (UTC)
서북서7kt
시정 10km 이상
고도 4500ft 상공 구름 조금
전환 중
20일 12시부터 20일 15시까지 (UTC)
10kt

TAF: EGGP 191701Z 1918/2018 29007KT 9999 FEW045 BECMG 2012/2015 36010KT

4,000개 이상의 공항 관측 자료 및 예보 (METAR 및 TAF 보고).

지도상에서 검색 가능한 기상관측소가 노란 점과 빨간 점으로 표시되어 있습니다.

기상관측소 명을 보려면 표시 위로 마우스를 이동하세요.

날씨 관측과 예보를 보려면 클릭하세요.

지도 변경 : 확대하려면 엑스 표시가 있는 녹색 버튼, 축소하려면 빼기 표시가 있는 녹색 버튼, 다음 페이지의 지도를 보려면 녹색 화살표를 클릭하세요.


METAR-TAF: